sensor_id;sensor_type;location;lat;lon;timestamp;pressure;altitude;pressure_sealevel;temperature;humidity
33949;BME280;20229;49.856;19.030;2024-03-29T00:04:36;100250.57;;;9.02;90.36
33949;BME280;20229;49.856;19.030;2024-03-29T00:09:50;100257.93;;;9.00;90.16
33949;BME280;20229;49.856;19.030;2024-03-29T00:15:05;100273.66;;;8.95;89.48
33949;BME280;20229;49.856;19.030;2024-03-29T00:20:21;100289.45;;;8.89;89.45
33949;BME280;20229;49.856;19.030;2024-03-29T00:25:37;100287.43;;;8.76;89.11
33949;BME280;20229;49.856;19.030;2024-03-29T00:30:51;100320.59;;;8.67;89.52
33949;BME280;20229;49.856;19.030;2024-03-29T00:36:05;100339.90;;;8.63;89.17
33949;BME280;20229;49.856;19.030;2024-03-29T00:41:20;100325.32;;;8.64;89.10
33949;BME280;20229;49.856;19.030;2024-03-29T00:46:34;100325.35;;;8.46;90.04
33949;BME280;20229;49.856;19.030;2024-03-29T00:51:48;100339.03;;;8.27;88.24
33949;BME280;20229;49.856;19.030;2024-03-29T00:57:03;100344.38;;;8.11;90.30
33949;BME280;20229;49.856;19.030;2024-03-29T01:02:17;100351.34;;;8.00;89.46
33949;BME280;20229;49.856;19.030;2024-03-29T01:07:30;100366.37;;;7.89;89.67
33949;BME280;20229;49.856;19.030;2024-03-29T01:12:44;100374.82;;;7.83;89.49
33949;BME280;20229;49.856;19.030;2024-03-29T01:18:00;100386.16;;;7.74;89.58
33949;BME280;20229;49.856;19.030;2024-03-29T01:23:14;100409.21;;;7.65;89.57
33949;BME280;20229;49.856;19.030;2024-03-29T01:28:27;100422.30;;;7.57;88.79
33949;BME280;20229;49.856;19.030;2024-03-29T01:33:42;100426.41;;;7.47;88.95
33949;BME280;20229;49.856;19.030;2024-03-29T01:38:59;100451.82;;;7.46;88.73
33949;BME280;20229;49.856;19.030;2024-03-29T01:44:15;100469.22;;;7.42;88.61
33949;BME280;20229;49.856;19.030;2024-03-29T01:49:30;100496.70;;;7.34;88.77
33949;BME280;20229;49.856;19.030;2024-03-29T01:54:46;100512.35;;;7.29;88.91
33949;BME280;20229;49.856;19.030;2024-03-29T02:00:04;100520.71;;;7.25;88.73
33949;BME280;20229;49.856;19.030;2024-03-29T02:05:19;100539.90;;;7.20;89.11
33949;BME280;20229;49.856;19.030;2024-03-29T02:10:35;100541.27;;;7.10;89.27
33949;BME280;20229;49.856;19.030;2024-03-29T02:15:49;100555.79;;;7.09;89.15
33949;BME280;20229;49.856;19.030;2024-03-29T02:21:03;100563.19;;;7.05;88.27
33949;BME280;20229;49.856;19.030;2024-03-29T02:26:18;100577.77;;;7.03;88.71
33949;BME280;20229;49.856;19.030;2024-03-29T02:31:32;100576.85;;;7.04;87.63
33949;BME280;20229;49.856;19.030;2024-03-29T02:36:46;100587.62;;;7.05;86.94
33949;BME280;20229;49.856;19.030;2024-03-29T02:42:01;100593.18;;;7.02;87.36
33949;BME280;20229;49.856;19.030;2024-03-29T02:47:16;100614.09;;;7.00;86.76
33949;BME280;20229;49.856;19.030;2024-03-29T02:52:33;100614.35;;;6.94;87.11
33949;BME280;20229;49.856;19.030;2024-03-29T02:57:47;100625.26;;;6.92;86.64
33949;BME280;20229;49.856;19.030;2024-03-29T03:03:01;100627.09;;;6.92;86.19
33949;BME280;20229;49.856;19.030;2024-03-29T03:08:15;100628.88;;;6.93;86.14
33949;BME280;20229;49.856;19.030;2024-03-29T03:13:41;100629.00;;;6.90;85.67
33949;BME280;20229;49.856;19.030;2024-03-29T03:18:55;100619.90;;;6.91;85.43
33949;BME280;20229;49.856;19.030;2024-03-29T03:24:09;100608.30;;;6.87;85.61
33949;BME280;20229;49.856;19.030;2024-03-29T03:29:25;100605.72;;;6.84;84.92
33949;BME280;20229;49.856;19.030;2024-03-29T03:34:39;100616.69;;;6.81;85.18
33949;BME280;20229;49.856;19.030;2024-03-29T03:39:53;100620.29;;;6.82;84.96
33949;BME280;20229;49.856;19.030;2024-03-29T03:45:08;100634.18;;;6.74;85.38
33949;BME280;20229;49.856;19.030;2024-03-29T03:50:26;100632.66;;;6.67;85.12
33949;BME280;20229;49.856;19.030;2024-03-29T03:55:44;100628.45;;;6.60;84.92
33949;BME280;20229;49.856;19.030;2024-03-29T04:01:05;100618.87;;;6.51;85.26
33949;BME280;20229;49.856;19.030;2024-03-29T04:06:19;100620.19;;;6.41;86.01
33949;BME280;20229;49.856;19.030;2024-03-29T04:11:33;100633.19;;;6.33;86.18
33949;BME280;20229;49.856;19.030;2024-03-29T04:16:48;100644.31;;;6.25;86.38
33949;BME280;20229;49.856;19.030;2024-03-29T04:22:03;100639.20;;;6.17;86.62
33949;BME280;20229;49.856;19.030;2024-03-29T04:27:17;100662.25;;;6.06;87.55
33949;BME280;20229;49.856;19.030;2024-03-29T04:32:31;100664.41;;;5.96;87.73
33949;BME280;20229;49.856;19.030;2024-03-29T04:37:45;100666.51;;;5.88;88.31
33949;BME280;20229;49.856;19.030;2024-03-29T04:42:59;100672.04;;;5.85;87.92
33949;BME280;20229;49.856;19.030;2024-03-29T04:48:13;100700.09;;;5.84;87.42
33949;BME280;20229;49.856;19.030;2024-03-29T04:53:28;100702.72;;;5.85;87.39
33949;BME280;20229;49.856;19.030;2024-03-29T04:58:42;100713.52;;;5.87;87.42
33949;BME280;20229;49.856;19.030;2024-03-29T05:03:56;100703.30;;;5.95;87.13
33949;BME280;20229;49.856;19.030;2024-03-29T05:09:10;100684.70;;;6.09;85.63
33949;BME280;20229;49.856;19.030;2024-03-29T05:14:25;100708.14;;;6.34;85.27
33949;BME280;20229;49.856;19.030;2024-03-29T05:19:40;100693.02;;;6.50;84.62
33949;BME280;20229;49.856;19.030;2024-03-29T05:24:54;100690.51;;;6.67;84.20
33949;BME280;20229;49.856;19.030;2024-03-29T05:30:10;100718.91;;;6.81;83.74
33949;BME280;20229;49.856;19.030;2024-03-29T05:35:24;100723.65;;;6.98;83.22
33949;BME280;20229;49.856;19.030;2024-03-29T05:40:38;100725.80;;;7.11;83.17
33949;BME280;20229;49.856;19.030;2024-03-29T05:45:53;100730.45;;;7.30;82.32
33949;BME280;20229;49.856;19.030;2024-03-29T05:51:07;100753.01;;;7.52;81.61
33949;BME280;20229;49.856;19.030;2024-03-29T05:56:22;100735.51;;;7.80;80.82
33949;BME280;20229;49.856;19.030;2024-03-29T06:01:36;100729.56;;;8.11;79.46
33949;BME280;20229;49.856;19.030;2024-03-29T06:06:50;100721.11;;;8.75;78.37
33949;BME280;20229;49.856;19.030;2024-03-29T06:12:05;100734.22;;;9.40;76.50
33949;BME280;20229;49.856;19.030;2024-03-29T06:17:24;100727.13;;;11.35;74.25
33949;BME280;20229;49.856;19.030;2024-03-29T06:22:38;100697.87;;;15.27;62.00
33949;BME280;20229;49.856;19.030;2024-03-29T06:27:52;100679.70;;;20.14;50.89
33949;BME280;20229;49.856;19.030;2024-03-29T06:33:09;100674.84;;;24.27;41.53
33949;BME280;20229;49.856;19.030;2024-03-29T06:38:23;100687.09;;;27.27;35.42
33949;BME280;20229;49.856;19.030;2024-03-29T06:43:41;100710.36;;;29.34;30.54
33949;BME280;20229;49.856;19.030;2024-03-29T06:48:57;100686.12;;;30.67;28.44
33949;BME280;20229;49.856;19.030;2024-03-29T06:54:12;100678.00;;;32.07;23.49
33949;BME280;20229;49.856;19.030;2024-03-29T06:59:28;100688.79;;;33.28;25.08
33949;BME280;20229;49.856;19.030;2024-03-29T07:04:42;100682.36;;;35.36;22.79
33949;BME280;20229;49.856;19.030;2024-03-29T07:09:56;100680.79;;;36.59;20.90
33949;BME280;20229;49.856;19.030;2024-03-29T07:15:10;100681.38;;;37.83;21.18
33949;BME280;20229;49.856;19.030;2024-03-29T07:20:26;100680.95;;;39.30;18.72
33949;BME280;20229;49.856;19.030;2024-03-29T07:25:40;100671.36;;;39.67;16.84
33949;BME280;20229;49.856;19.030;2024-03-29T07:30:55;100685.80;;;40.95;16.91
33949;BME280;20229;49.856;19.030;2024-03-29T07:36:13;100694.49;;;41.65;14.75
33949;BME280;20229;49.856;19.030;2024-03-29T07:41:31;100702.48;;;42.28;14.94
33949;BME280;20229;49.856;19.030;2024-03-29T07:46:45;100702.30;;;42.82;14.27
33949;BME280;20229;49.856;19.030;2024-03-29T07:52:03;100706.91;;;43.07;15.74
33949;BME280;20229;49.856;19.030;2024-03-29T07:57:19;100709.54;;;43.04;14.78
33949;BME280;20229;49.856;19.030;2024-03-29T08:02:34;100715.04;;;39.57;16.11
33949;BME280;20229;49.856;19.030;2024-03-29T08:07:48;100715.09;;;34.80;20.01
33949;BME280;20229;49.856;19.030;2024-03-29T08:13:02;100731.32;;;31.83;20.60
33949;BME280;20229;49.856;19.030;2024-03-29T08:18:17;100748.48;;;29.97;22.26
33949;BME280;20229;49.856;19.030;2024-03-29T08:23:31;100744.61;;;28.81;22.30
33949;BME280;20229;49.856;19.030;2024-03-29T08:28:45;100746.46;;;27.67;24.40
33949;BME280;20229;49.856;19.030;2024-03-29T08:34:00;100746.22;;;26.73;25.06
33949;BME280;20229;49.856;19.030;2024-03-29T08:39:15;100754.74;;;26.18;27.19
33949;BME280;20229;49.856;19.030;2024-03-29T08:44:33;100755.85;;;25.47;27.24
33949;BME280;20229;49.856;19.030;2024-03-29T08:49:47;100752.44;;;24.81;28.17
33949;BME280;20229;49.856;19.030;2024-03-29T08:55:01;100759.45;;;24.28;27.53
33949;BME280;20229;49.856;19.030;2024-03-29T09:00:15;100764.97;;;23.95;27.56
33949;BME280;20229;49.856;19.030;2024-03-29T09:05:30;100767.34;;;23.66;29.24
33949;BME280;20229;49.856;19.030;2024-03-29T09:10:45;100758.34;;;23.29;29.55
33949;BME280;20229;49.856;19.030;2024-03-29T09:16:00;100763.52;;;22.90;30.74
33949;BME280;20229;49.856;19.030;2024-03-29T09:21:14;100759.31;;;22.60;30.55
33949;BME280;20229;49.856;19.030;2024-03-29T09:26:33;100743.09;;;22.29;31.05
33949;BME280;20229;49.856;19.030;2024-03-29T09:31:47;100736.03;;;21.99;30.76
33949;BME280;20229;49.856;19.030;2024-03-29T09:37:01;100736.49;;;21.77;32.53
33949;BME280;20229;49.856;19.030;2024-03-29T09:42:17;100747.59;;;21.59;32.50
33949;BME280;20229;49.856;19.030;2024-03-29T09:52:23;100758.24;;;21.45;33.15
33949;BME280;20229;49.856;19.030;2024-03-29T09:57:47;100741.64;;;21.26;32.48
33949;BME280;20229;49.856;19.030;2024-03-29T10:03:03;100749.15;;;21.16;33.69
33949;BME280;20229;49.856;19.030;2024-03-29T10:08:22;100745.11;;;21.10;33.77
33949;BME280;20229;49.856;19.030;2024-03-29T10:13:36;100730.03;;;21.13;33.91
33949;BME280;20229;49.856;19.030;2024-03-29T10:18:51;100730.93;;;21.13;32.46
33949;BME280;20229;49.856;19.030;2024-03-29T10:24:11;100731.80;;;21.14;32.13
33949;BME280;20229;49.856;19.030;2024-03-29T10:29:30;100729.23;;;21.03;32.16
33949;BME280;20229;49.856;19.030;2024-03-29T10:34:44;100720.38;;;20.89;32.62
33949;BME280;20229;49.856;19.030;2024-03-29T10:39:58;100700.52;;;20.84;32.95
33949;BME280;20229;49.856;19.030;2024-03-29T10:45:15;100672.08;;;20.82;33.26
33949;BME280;20229;49.856;19.030;2024-03-29T10:50:31;100693.53;;;20.80;32.16
33949;BME280;20229;49.856;19.030;2024-03-29T10:55:53;100660.55;;;20.77;31.58
33949;BME280;20229;49.856;19.030;2024-03-29T11:01:09;100644.94;;;20.76;33.70
33949;BME280;20229;49.856;19.030;2024-03-29T11:06:29;100655.82;;;20.87;34.27
33949;BME280;20229;49.856;19.030;2024-03-29T11:11:50;100635.06;;;20.91;32.30
33949;BME280;20229;49.856;19.030;2024-03-29T11:17:05;100618.09;;;20.94;31.92
33949;BME280;20229;49.856;19.030;2024-03-29T11:22:20;100618.09;;;20.94;31.87
33949;BME280;20229;49.856;19.030;2024-03-29T11:27:34;100609.55;;;21.06;32.11
33949;BME280;20229;49.856;19.030;2024-03-29T11:32:48;100594.01;;;21.13;32.45
33949;BME280;20229;49.856;19.030;2024-03-29T11:38:08;100570.55;;;21.25;32.27
33949;BME280;20229;49.856;19.030;2024-03-29T11:43:22;100560.00;;;21.29;31.19
33949;BME280;20229;49.856;19.030;2024-03-29T11:48:37;100566.17;;;21.22;32.18
33949;BME280;20229;49.856;19.030;2024-03-29T11:53:52;100564.69;;;21.28;32.00
33949;BME280;20229;49.856;19.030;2024-03-29T11:59:07;100572.52;;;21.33;32.85
33949;BME280;20229;49.856;19.030;2024-03-29T12:04:23;100575.16;;;21.34;32.62
33949;BME280;20229;49.856;19.030;2024-03-29T12:09:37;100566.42;;;21.29;32.90
33949;BME280;20229;49.856;19.030;2024-03-29T12:14:51;100571.66;;;21.32;32.95
33949;BME280;20229;49.856;19.030;2024-03-29T12:20:06;100554.27;;;21.30;33.95
33949;BME280;20229;49.856;19.030;2024-03-29T12:25:26;100560.87;;;21.29;35.34
33949;BME280;20229;49.856;19.030;2024-03-29T12:30:42;100558.02;;;21.21;33.61
33949;BME280;20229;49.856;19.030;2024-03-29T12:35:57;100545.81;;;21.14;33.56
33949;BME280;20229;49.856;19.030;2024-03-29T12:41:12;100537.16;;;21.17;34.15
33949;BME280;20229;49.856;19.030;2024-03-29T12:46:27;100532.31;;;21.19;34.35
33949;BME280;20229;49.856;19.030;2024-03-29T12:51:44;100531.77;;;21.15;34.56
33949;BME280;20229;49.856;19.030;2024-03-29T12:56:58;100535.17;;;20.91;34.69
33949;BME280;20229;49.856;19.030;2024-03-29T13:02:14;100544.89;;;20.77;36.26
33949;BME280;20229;49.856;19.030;2024-03-29T13:07:33;100543.55;;;20.64;35.11
33949;BME280;20229;49.856;19.030;2024-03-29T13:12:47;100535.12;;;20.56;36.76
33949;BME280;20229;49.856;19.030;2024-03-29T13:18:08;100538.71;;;20.66;36.29
33949;BME280;20229;49.856;19.030;2024-03-29T13:23:22;100535.00;;;20.75;35.76
33949;BME280;20229;49.856;19.030;2024-03-29T13:28:37;100536.13;;;20.82;36.56
33949;BME280;20229;49.856;19.030;2024-03-29T13:33:51;100538.79;;;20.74;36.90
33949;BME280;20229;49.856;19.030;2024-03-29T13:39:09;100525.45;;;20.60;36.83
33949;BME280;20229;49.856;19.030;2024-03-29T13:44:28;100523.11;;;20.65;36.17
33949;BME280;20229;49.856;19.030;2024-03-29T13:49:42;100523.41;;;20.62;36.30
33949;BME280;20229;49.856;19.030;2024-03-29T13:54:56;100528.41;;;20.48;36.00
33949;BME280;20229;49.856;19.030;2024-03-29T14:00:11;100530.23;;;20.40;36.50
33949;BME280;20229;49.856;19.030;2024-03-29T14:05:30;100523.18;;;20.45;36.73
33949;BME280;20229;49.856;19.030;2024-03-29T14:10:45;100515.59;;;20.47;36.23
33949;BME280;20229;49.856;19.030;2024-03-29T14:15:59;100505.90;;;20.61;36.18
33949;BME280;20229;49.856;19.030;2024-03-29T14:21:15;100508.62;;;20.71;36.83
33949;BME280;20229;49.856;19.030;2024-03-29T14:26:30;100507.64;;;20.62;36.65
33949;BME280;20229;49.856;19.030;2024-03-29T14:31:44;100538.92;;;20.55;37.64
33949;BME280;20229;49.856;19.030;2024-03-29T14:36:58;100524.95;;;20.46;37.70
33949;BME280;20229;49.856;19.030;2024-03-29T14:42:13;100527.60;;;20.38;37.61
33949;BME280;20229;49.856;19.030;2024-03-29T14:47:34;100528.84;;;20.26;38.49
33949;BME280;20229;49.856;19.030;2024-03-29T14:52:54;100528.74;;;20.18;38.83
33949;BME280;20229;49.856;19.030;2024-03-29T14:58:08;100522.24;;;19.99;39.16
33949;BME280;20229;49.856;19.030;2024-03-29T15:03:23;100537.45;;;19.86;39.29
33949;BME280;20229;49.856;19.030;2024-03-29T15:08:38;100527.88;;;19.70;39.95
33949;BME280;20229;49.856;19.030;2024-03-29T15:13:52;100515.64;;;19.53;40.79
33949;BME280;20229;49.856;19.030;2024-03-29T15:19:06;100529.66;;;19.42;41.32
33949;BME280;20229;49.856;19.030;2024-03-29T15:24:22;100521.10;;;19.26;42.01
33949;BME280;20229;49.856;19.030;2024-03-29T15:29:37;100507.56;;;19.23;42.72
33949;BME280;20229;49.856;19.030;2024-03-29T15:34:51;100507.84;;;19.20;42.11
33949;BME280;20229;49.856;19.030;2024-03-29T15:40:06;100539.02;;;19.12;42.17
33949;BME280;20229;49.856;19.030;2024-03-29T15:45:20;100525.75;;;18.96;42.60
33949;BME280;20229;49.856;19.030;2024-03-29T15:50:34;100524.45;;;18.81;42.93
33949;BME280;20229;49.856;19.030;2024-03-29T15:55:51;100534.84;;;18.58;44.03
33949;BME280;20229;49.856;19.030;2024-03-29T16:01:05;100541.20;;;18.39;44.84
33949;BME280;20229;49.856;19.030;2024-03-29T16:06:19;100522.53;;;18.22;44.74
33949;BME280;20229;49.856;19.030;2024-03-29T16:11:37;100523.79;;;18.08;45.80
33949;BME280;20229;49.856;19.030;2024-03-29T16:16:52;100526.05;;;17.93;46.69
33949;BME280;20229;49.856;19.030;2024-03-29T16:22:06;100526.88;;;17.84;47.15
33949;BME280;20229;49.856;19.030;2024-03-29T16:27:21;100512.41;;;17.71;48.30
33949;BME280;20229;49.856;19.030;2024-03-29T16:32:36;100510.73;;;17.58;49.34
33949;BME280;20229;49.856;19.030;2024-03-29T16:37:53;100503.82;;;17.43;48.92
33949;BME280;20229;49.856;19.030;2024-03-29T16:43:07;100492.87;;;17.32;50.38
33949;BME280;20229;49.856;19.030;2024-03-29T16:48:26;100493.66;;;17.23;51.39
33949;BME280;20229;49.856;19.030;2024-03-29T16:53:41;100490.82;;;17.13;51.50
33949;BME280;20229;49.856;19.030;2024-03-29T16:58:57;100488.02;;;17.03;53.24
33949;BME280;20229;49.856;19.030;2024-03-29T17:04:11;100488.66;;;16.95;54.07
33949;BME280;20229;49.856;19.030;2024-03-29T17:09:34;100481.31;;;16.85;53.62
33949;BME280;20229;49.856;19.030;2024-03-29T17:14:49;100473.71;;;16.77;54.31
33949;BME280;20229;49.856;19.030;2024-03-29T17:20:04;100493.90;;;16.66;54.96
33949;BME280;20229;49.856;19.030;2024-03-29T17:25:19;100495.43;;;16.59;56.41
33949;BME280;20229;49.856;19.030;2024-03-29T17:30:35;100484.45;;;16.48;56.55
33949;BME280;20229;49.856;19.030;2024-03-29T17:35:49;100486.84;;;16.41;56.72
33949;BME280;20229;49.856;19.030;2024-03-29T17:41:03;100495.50;;;16.37;57.73
33949;BME280;20229;49.856;19.030;2024-03-29T17:46:17;100499.01;;;16.28;56.64
33949;BME280;20229;49.856;19.030;2024-03-29T17:51:31;100505.31;;;16.18;57.61
33949;BME280;20229;49.856;19.030;2024-03-29T17:56:46;100505.91;;;16.11;58.10
33949;BME280;20229;49.856;19.030;2024-03-29T18:02:00;100511.82;;;16.06;57.97
33949;BME280;20229;49.856;19.030;2024-03-29T18:07:14;100505.69;;;16.03;58.37
33949;BME280;20229;49.856;19.030;2024-03-29T18:12:28;100503.58;;;15.95;58.51
33949;BME280;20229;49.856;19.030;2024-03-29T18:17:42;100510.34;;;15.80;59.65
33949;BME280;20229;49.856;19.030;2024-03-29T18:22:57;100514.66;;;15.60;59.29
33949;BME280;20229;49.856;19.030;2024-03-29T18:28:12;100524.89;;;15.46;60.49
33949;BME280;20229;49.856;19.030;2024-03-29T18:33:30;100532.99;;;15.37;59.83
33949;BME280;20229;49.856;19.030;2024-03-29T18:38:45;100541.75;;;15.30;60.78
33949;BME280;20229;49.856;19.030;2024-03-29T18:43:59;100529.72;;;15.20;61.16
33949;BME280;20229;49.856;19.030;2024-03-29T18:49:13;100529.72;;;15.20;61.84
33949;BME280;20229;49.856;19.030;2024-03-29T18:54:29;100527.21;;;15.17;61.94
33949;BME280;20229;49.856;19.030;2024-03-29T18:59:43;100526.68;;;15.12;62.27
33949;BME280;20229;49.856;19.030;2024-03-29T19:04:57;100514.30;;;15.06;61.16
33949;BME280;20229;49.856;19.030;2024-03-29T19:10:11;100513.69;;;15.14;62.30
33949;BME280;20229;49.856;19.030;2024-03-29T19:15:28;100504.20;;;15.18;62.73
33949;BME280;20229;49.856;19.030;2024-03-29T19:20:42;100510.24;;;15.23;62.74
33949;BME280;20229;49.856;19.030;2024-03-29T19:25:57;100508.22;;;15.25;62.70
33949;BME280;20229;49.856;19.030;2024-03-29T19:31:12;100501.75;;;15.26;62.84
33949;BME280;20229;49.856;19.030;2024-03-29T19:36:27;100512.75;;;15.26;63.77
33949;BME280;20229;49.856;19.030;2024-03-29T19:41:42;100506.97;;;15.29;63.02
33949;BME280;20229;49.856;19.030;2024-03-29T19:46:55;100512.87;;;15.36;63.75
33949;BME280;20229;49.856;19.030;2024-03-29T19:52:09;100525.27;;;15.42;63.79
33949;BME280;20229;49.856;19.030;2024-03-29T19:57:24;100518.76;;;15.43;63.38
33949;BME280;20229;49.856;19.030;2024-03-29T20:02:38;100521.51;;;15.43;63.59
33949;BME280;20229;49.856;19.030;2024-03-29T20:07:52;100509.50;;;15.44;63.42
33949;BME280;20229;49.856;19.030;2024-03-29T20:13:09;100515.90;;;15.44;64.12
33949;BME280;20229;49.856;19.030;2024-03-29T20:18:27;100513.88;;;15.46;65.56
33949;BME280;20229;49.856;19.030;2024-03-29T20:23:41;100506.74;;;15.44;64.67
33949;BME280;20229;49.856;19.030;2024-03-29T20:28:57;100499.40;;;15.44;64.51
33949;BME280;20229;49.856;19.030;2024-03-29T20:34:11;100508.02;;;15.51;65.45
33949;BME280;20229;49.856;19.030;2024-03-29T20:39:27;100499.41;;;15.56;64.36
33949;BME280;20229;49.856;19.030;2024-03-29T20:44:41;100493.52;;;15.60;65.31
33949;BME280;20229;49.856;19.030;2024-03-29T20:49:55;100484.02;;;15.64;64.65
33949;BME280;20229;49.856;19.030;2024-03-29T20:55:09;100507.70;;;15.67;63.58
33949;BME280;20229;49.856;19.030;2024-03-29T21:00:24;100493.55;;;15.71;64.25
33949;BME280;20229;49.856;19.030;2024-03-29T21:05:42;100480.04;;;15.68;64.39
33949;BME280;20229;49.856;19.030;2024-03-29T21:10:57;100498.79;;;15.63;64.00
33949;BME280;20229;49.856;19.030;2024-03-29T21:16:11;100509.02;;;15.61;64.34
33949;BME280;20229;49.856;19.030;2024-03-29T21:21:27;100492.02;;;15.56;64.41
33949;BME280;20229;49.856;19.030;2024-03-29T21:26:42;100501.02;;;15.58;63.96
33949;BME280;20229;49.856;19.030;2024-03-29T21:32:01;100493.91;;;15.56;64.94
33949;BME280;20229;49.856;19.030;2024-03-29T21:37:15;100500.14;;;15.58;65.09
33949;BME280;20229;49.856;19.030;2024-03-29T21:42:31;100505.79;;;15.56;64.80
33949;BME280;20229;49.856;19.030;2024-03-29T21:47:48;100518.66;;;15.56;64.98
33949;BME280;20229;49.856;19.030;2024-03-29T21:53:02;100512.02;;;15.58;64.71
33949;BME280;20229;49.856;19.030;2024-03-29T21:58:16;100488.41;;;15.56;65.12
33949;BME280;20229;49.856;19.030;2024-03-29T22:03:30;100483.01;;;15.54;64.39
33949;BME280;20229;49.856;19.030;2024-03-29T22:08:44;100487.87;;;15.50;64.92
33949;BME280;20229;49.856;19.030;2024-03-29T22:13:58;100496.51;;;15.46;65.02
33949;BME280;20229;49.856;19.030;2024-03-29T22:19:13;100495.63;;;15.45;63.94
33949;BME280;20229;49.856;19.030;2024-03-29T22:24:27;100485.75;;;15.43;64.45
33949;BME280;20229;49.856;19.030;2024-03-29T22:29:41;100474.98;;;15.40;64.55
33949;BME280;20229;49.856;19.030;2024-03-29T22:34:56;100496.99;;;15.40;65.14
33949;BME280;20229;49.856;19.030;2024-03-29T22:40:11;100491.39;;;15.41;64.60
33949;BME280;20229;49.856;19.030;2024-03-29T22:45:26;100485.75;;;15.43;64.53
33949;BME280;20229;49.856;19.030;2024-03-29T22:50:41;100475.38;;;15.46;65.31
33949;BME280;20229;49.856;19.030;2024-03-29T22:55:56;100481.75;;;15.47;64.48
33949;BME280;20229;49.856;19.030;2024-03-29T23:01:10;100476.24;;;15.47;63.82
33949;BME280;20229;49.856;19.030;2024-03-29T23:06:24;100473.74;;;15.44;64.40
33949;BME280;20229;49.856;19.030;2024-03-29T23:11:39;100475.52;;;15.45;64.09
33949;BME280;20229;49.856;19.030;2024-03-29T23:16:53;100476.49;;;15.44;64.34
33949;BME280;20229;49.856;19.030;2024-03-29T23:22:07;100468.38;;;15.42;64.11
33949;BME280;20229;49.856;19.030;2024-03-29T23:27:23;100477.87;;;15.38;65.19
33949;BME280;20229;49.856;19.030;2024-03-29T23:32:37;100474.51;;;15.35;64.31
33949;BME280;20229;49.856;19.030;2024-03-29T23:37:51;100474.24;;;15.26;64.31
33949;BME280;20229;49.856;19.030;2024-03-29T23:43:05;100479.09;;;15.23;65.37
33949;BME280;20229;49.856;19.030;2024-03-29T23:48:20;100476.72;;;15.18;65.45
33949;BME280;20229;49.856;19.030;2024-03-29T23:53:34;100476.21;;;15.13;64.98
33949;BME280;20229;49.856;19.030;2024-03-29T23:58:48;100476.19;;;15.02;64.96
